Time;durP1;ratioP1;P1;durP2;ratioP2;P2;SDS_P1;SDS_P2;PMS_P1;PMS_P2;Temp;Humidity;BMP_temperature;BMP_pressure;BME280_temperature;BME280_humidity;BME280_pressure;Samples;Min_cycle;Max_cycle;Signal;HPM_P1;HPM_P2
2021/03/20 00:01:34;;;;;;;6.15;4.00;;;3.90;79.30;;;;;;5072831;28;20021;-74
2021/03/20 00:04:00;;;;;;;5.65;3.75;;;3.90;78.60;;;;;;5075561;28;20042;-74
2021/03/20 00:06:30;;;;;;;6.75;3.67;;;3.90;78.40;;;;;;5075536;28;20119;-74
2021/03/20 00:08:57;;;;;;;7.93;3.72;;;3.90;78.40;;;;;;5076699;28;20032;-74
2021/03/20 00:11:23;;;;;;;6.78;4.13;;;3.90;78.40;;;;;;5076221;28;20400;-75
2021/03/20 00:13:49;;;;;;;5.55;4.00;;;3.90;78.40;;;;;;5076726;28;20024;-74
2021/03/20 00:16:16;;;;;;;5.18;3.90;;;3.90;78.40;;;;;;5076519;28;20031;-74
2021/03/20 00:18:42;;;;;;;5.55;3.58;;;3.90;78.40;;;;;;5075349;28;20028;-74
2021/03/20 00:21:08;;;;;;;6.03;4.10;;;3.90;78.40;;;;;;5075066;28;20016;-74
2021/03/20 00:23:35;;;;;;;6.80;3.60;;;3.90;78.30;;;;;;5076208;28;20040;-74
2021/03/20 00:26:00;;;;;;;5.88;4.30;;;4.00;78.20;;;;;;5076093;28;20055;-74
2021/03/20 00:28:28;;;;;;;7.20;3.95;;;4.00;78.10;;;;;;5076203;28;20040;-75
2021/03/20 00:30:56;;;;;;;5.88;4.10;;;4.10;78.10;;;;;;5076168;28;20068;-74
2021/03/20 00:33:23;;;;;;;5.30;3.88;;;4.10;77.90;;;;;;5076018;28;20041;-74
2021/03/20 00:35:49;;;;;;;4.18;3.47;;;4.10;77.80;;;;;;5074781;28;20115;-74
2021/03/20 00:38:15;;;;;;;7.05;4.15;;;4.10;77.70;;;;;;5074750;28;20502;-72
2021/03/20 00:40:41;;;;;;;5.38;3.47;;;4.20;77.70;;;;;;5075926;28;20032;-72
2021/03/20 00:43:08;;;;;;;6.70;3.50;;;4.20;77.60;;;;;;5076000;28;20066;-73
2021/03/20 00:45:33;;;;;;;5.35;3.70;;;4.20;77.50;;;;;;5076059;28;20112;-75
2021/03/20 00:48:08;;;;;;;4.47;3.63;;;4.20;77.40;;;;;;5071702;28;20154;-72
2021/03/20 00:50:35;;;;;;;5.28;4.10;;;4.20;77.30;;;;;;5076283;28;20104;-73
2021/03/20 00:53:01;;;;;;;5.28;3.72;;;4.20;77.30;;;;;;5074399;28;20388;-73
2021/03/20 00:55:26;;;;;;;6.25;4.00;;;4.10;77.30;;;;;;5075612;28;20024;-73
2021/03/20 00:57:52;;;;;;;4.93;3.55;;;4.10;77.30;;;;;;5074483;28;20025;-72
2021/03/20 01:00:22;;;;;;;6.82;4.28;;;4.00;77.30;;;;;;5074500;28;20033;-73
2021/03/20 01:02:48;;;;;;;5.15;3.88;;;4.00;77.30;;;;;;5074285;28;20115;-73
2021/03/20 01:05:15;;;;;;;5.22;3.65;;;3.90;77.30;;;;;;5074221;28;20107;-73
2021/03/20 01:07:42;;;;;;;4.32;3.63;;;3.90;77.30;;;;;;5074264;28;20029;-72
2021/03/20 01:10:11;;;;;;;6.15;3.97;;;3.90;77.30;;;;;;5074307;28;20032;-73
2021/03/20 01:12:37;;;;;;;7.22;4.03;;;3.80;77.30;;;;;;5075375;28;20125;-72
2021/03/20 01:15:05;;;;;;;5.57;4.13;;;3.70;77.30;;;;;;5075568;28;20063;-73
2021/03/20 01:17:31;;;;;;;4.70;3.72;;;3.60;77.40;;;;;;5074182;28;20031;-72
2021/03/20 01:19:57;;;;;;;4.80;3.80;;;3.50;77.40;;;;;;5074197;28;20379;-73
2021/03/20 01:22:22;;;;;;;5.65;3.47;;;3.50;77.50;;;;;;5075346;28;20029;-73
2021/03/20 01:24:48;;;;;;;5.82;4.22;;;3.50;78.20;;;;;;5073922;28;20036;-73
2021/03/20 01:27:14;;;;;;;6.72;3.92;;;3.40;77.60;;;;;;5074093;28;20028;-74
2021/03/20 01:29:39;;;;;;;7.05;4.28;;;3.40;77.70;;;;;;5073885;28;20028;-74
2021/03/20 01:32:05;;;;;;;5.13;4.18;;;3.30;77.70;;;;;;5073924;28;20033;-73
2021/03/20 01:34:31;;;;;;;7.40;4.55;;;3.30;77.70;;;;;;5073801;28;20029;-74
2021/03/20 01:36:56;;;;;;;7.95;4.28;;;3.20;77.80;;;;;;5075085;28;20070;-74
2021/03/20 01:39:22;;;;;;;6.57;3.67;;;3.20;77.80;;;;;;5075152;28;20036;-74
2021/03/20 01:41:48;;;;;;;5.45;3.53;;;3.20;77.90;;;;;;5073806;28;20036;-74
2021/03/20 01:44:20;;;;;;;6.57;3.90;;;3.20;77.80;;;;;;5073752;28;20024;-74
2021/03/20 01:46:51;;;;;;;6.15;3.97;;;3.20;77.70;;;;;;5074875;28;20039;-74
2021/03/20 01:49:47;;;;;;;6.32;3.55;;;3.20;77.70;;;;;;5073509;28;20029;-73
2021/03/20 01:52:12;;;;;;;4.90;3.55;;;3.20;77.70;;;;;;5074351;28;20610;-74
2021/03/20 01:54:47;;;;;;;6.10;3.72;;;3.20;77.70;;;;;;5074732;28;20096;-74
2021/03/20 01:57:18;;;;;;;5.25;3.95;;;3.20;77.70;;;;;;5073330;28;20150;-74
2021/03/20 01:59:45;;;;;;;4.95;3.60;;;3.20;77.60;;;;;;5073191;28;20021;-73
2021/03/20 02:02:11;;;;;;;5.35;3.63;;;3.20;77.60;;;;;;5073251;28;20032;-74
2021/03/20 02:04:38;;;;;;;4.97;3.85;;;3.20;77.50;;;;;;5074984;28;20431;-73
2021/03/20 02:07:03;;;;;;;5.90;3.47;;;3.20;77.40;;;;;;5074626;28;20112;-73
2021/03/20 02:09:29;;;;;;;5.50;3.85;;;3.10;77.30;;;;;;5073175;28;20407;-74
2021/03/20 02:12:16;;;;;;;3.92;3.00;;;3.10;77.20;;;;;;5074288;28;20024;-74
2021/03/20 02:14:59;;;;;;;4.82;3.50;;;3.10;77.20;;;;;;5073021;28;20388;-73
2021/03/20 02:17:39;;;;;;;5.53;3.58;;;3.20;77.10;;;;;;5074263;28;20025;-73
2021/03/20 02:20:26;;;;;;;4.18;3.50;;;3.10;77.00;;;;;;5072810;28;20025;-73
2021/03/20 02:23:23;;;;;;;6.35;3.72;;;3.10;76.90;;;;;;5074359;28;20029;-73
2021/03/20 02:26:28;;;;;;;4.63;3.42;;;3.10;76.90;;;;;;5073904;28;20044;-74
2021/03/20 02:29:21;;;;;;;6.20;3.88;;;3.20;76.90;;;;;;5074195;28;20027;-74
2021/03/20 02:31:52;;;;;;;3.70;3.13;;;3.10;76.70;;;;;;5072590;28;20029;-73
2021/03/20 02:34:53;;;;;;;4.72;3.53;;;3.10;76.60;;;;;;5072542;28;20028;-74
2021/03/20 02:37:53;;;;;;;5.72;3.67;;;3.10;76.60;;;;;;5072581;28;20499;-74
2021/03/20 02:40:47;;;;;;;6.30;3.97;;;3.10;76.60;;;;;;5073943;28;20025;-74
2021/03/20 02:43:28;;;;;;;4.90;3.58;;;3.00;76.50;;;;;;5072852;28;20143;-74
2021/03/20 02:46:02;;;;;;;5.72;3.38;;;2.90;76.50;;;;;;5073751;28;20464;-74
2021/03/20 02:48:33;;;;;;;4.20;3.20;;;3.00;76.50;;;;;;5072365;28;20017;-74
2021/03/20 02:51:10;;;;;;;4.78;3.60;;;2.90;76.50;;;;;;5073800;28;20052;-73
2021/03/20 02:53:49;;;;;;;5.72;3.63;;;2.90;76.50;;;;;;5072230;28;20078;-74
2021/03/20 02:56:21;;;;;;;5.50;3.22;;;2.80;76.50;;;;;;5072207;28;20017;-74
2021/03/20 02:58:53;;;;;;;5.45;3.67;;;2.80;76.40;;;;;;5073694;28;20159;-74
2021/03/20 03:01:23;;;;;;;5.45;3.47;;;2.80;76.40;;;;;;5073735;28;20508;-73
2021/03/20 03:03:51;;;;;;;3.97;3.33;;;2.80;76.40;;;;;;5072217;28;20036;-74
2021/03/20 03:06:22;;;;;;;5.55;3.55;;;2.80;76.40;;;;;;5073395;28;20036;-74
2021/03/20 03:08:55;;;;;;;5.50;3.80;;;2.80;76.50;;;;;;5071951;28;20028;-74
2021/03/20 03:11:31;;;;;;;8.27;3.80;;;2.80;76.40;;;;;;5073322;28;20039;-73
2021/03/20 03:14:09;;;;;;;5.82;4.13;;;2.70;76.30;;;;;;5073270;28;20056;-74
2021/03/20 03:16:58;;;;;;;6.15;3.70;;;2.70;76.40;;;;;;5073325;28;20025;-74
2021/03/20 03:19:32;;;;;;;6.78;4.15;;;2.70;76.50;;;;;;5073191;28;20016;-73
2021/03/20 03:21:59;;;;;;;;;;;2.70;76.50;;;;;;5073626;28;20515;-74
2021/03/20 03:24:27;;;;;;;5.30;3.55;;;2.70;76.50;;;;;;5073026;28;19916;-74
2021/03/20 03:26:59;;;;;;;6.65;4.00;;;2.70;76.50;;;;;;5071854;28;20028;-74
2021/03/20 03:29:27;;;;;;;6.90;4.43;;;2.70;76.50;;;;;;5071681;28;20028;-74
2021/03/20 03:32:11;;;;;;;5.47;4.18;;;2.70;76.60;;;;;;5073311;28;20027;-74
2021/03/20 03:34:51;;;;;;;5.50;4.13;;;2.60;76.60;;;;;;5073234;28;20094;-73
2021/03/20 03:37:35;;;;;;;6.70;4.40;;;2.60;76.60;;;;;;5072997;28;20040;-74
2021/03/20 03:40:19;;;;;;;6.72;4.35;;;2.60;76.60;;;;;;5071684;28;20487;-73
2021/03/20 03:42:49;;;;;;;7.05;4.03;;;2.60;76.70;;;;;;5071452;28;20082;-74
2021/03/20 03:45:17;;;;;;;5.38;3.60;;;2.60;76.70;;;;;;5071624;28;20021;-74
2021/03/20 03:47:44;;;;;;;6.03;4.22;;;2.60;76.70;;;;;;5072806;28;20078;-73
2021/03/20 03:50:26;;;;;;;4.53;3.42;;;2.60;76.70;;;;;;5072891;28;20488;-74
2021/03/20 03:52:52;;;;;;;6.40;4.57;;;2.60;76.60;;;;;;5071546;28;20071;-74
2021/03/20 03:55:18;;;;;;;5.78;3.95;;;2.50;76.50;;;;;;5071339;28;20067;-74
2021/03/20 03:57:51;;;;;;;4.80;3.75;;;2.50;76.50;;;;;;5071468;28;20040;-74
2021/03/20 04:00:33;;;;;;;5.90;3.67;;;2.50;76.60;;;;;;5071462;28;20090;-75
2021/03/20 04:03:23;;;;;;;7.07;3.90;;;2.40;76.50;;;;;;5071353;28;20044;-73
2021/03/20 04:05:56;;;;;;;5.25;3.70;;;2.40;76.40;;;;;;5071430;28;20029;-74
2021/03/20 04:08:36;;;;;;;8.00;5.43;;;2.40;76.40;;;;;;5071474;28;20494;-73
2021/03/20 04:11:26;;;;;;;12.85;7.15;;;2.40;76.40;;;;;;5072848;28;20024;-73
2021/03/20 04:14:07;;;;;;;8.50;5.43;;;2.50;76.50;;;;;;5072770;28;20043;-73
2021/03/20 04:17:00;;;;;;;7.07;4.63;;;2.50;76.40;;;;;;5072498;28;20025;-73
2021/03/20 04:19:44;;;;;;;6.68;4.13;;;2.40;76.50;;;;;;5071139;28;20070;-73
2021/03/20 04:22:24;;;;;;;7.13;4.13;;;2.40;76.20;;;;;;5071174;28;20119;-72
2021/03/20 04:24:55;;;;;;;4.97;3.90;;;2.40;76.20;;;;;;5070819;28;20044;-75
2021/03/20 04:27:28;;;;;;;5.30;3.92;;;2.40;76.20;;;;;;5071335;28;20462;-72
2021/03/20 04:30:06;;;;;;;6.35;3.53;;;2.40;76.10;;;;;;5071241;28;20029;-72
2021/03/20 04:32:49;;;;;;;5.13;3.83;;;2.30;76.10;;;;;;5072448;28;20036;-72
2021/03/20 04:35:24;;;;;;;4.87;3.67;;;2.30;76.10;;;;;;5072441;28;20025;-73
2021/03/20 04:37:53;;;;;;;5.30;3.70;;;2.30;76.10;;;;;;5072522;28;20033;-73
2021/03/20 04:40:30;;;;;;;5.03;3.60;;;2.30;76.10;;;;;;5071456;28;20119;-73
2021/03/20 04:42:58;;;;;;;6.57;3.58;;;2.20;76.10;;;;;;5073003;28;20099;-73
2021/03/20 04:45:48;;;;;;;5.97;4.05;;;2.20;76.00;;;;;;5071473;28;20024;-73
2021/03/20 04:48:31;;;;;;;5.07;3.60;;;2.20;76.20;;;;;;5075084;28;20033;-74
2021/03/20 04:51:20;;;;;;;5.10;3.35;;;2.20;76.20;;;;;;5074649;28;20170;-73
2021/03/20 04:53:48;;;;;;;5.40;3.78;;;2.10;76.10;;;;;;5076049;28;20036;-74
2021/03/20 04:56:17;;;;;;;5.40;3.53;;;2.10;76.10;;;;;;5074373;28;20189;-74
2021/03/20 04:58:47;;;;;;;7.05;3.60;;;2.10;76.00;;;;;;5075567;28;20032;-74
2021/03/20 05:01:33;;;;;;;5.50;3.60;;;2.10;76.00;;;;;;5075792;28;20029;-74
2021/03/20 05:04:06;;;;;;;5.55;3.58;;;2.10;76.00;;;;;;5075262;28;20040;-74
2021/03/20 05:06:33;;;;;;;7.88;4.03;;;2.00;75.90;;;;;;5074301;28;20021;-73
2021/03/20 05:09:06;;;;;;;5.85;4.13;;;2.00;75.90;;;;;;5074531;28;20485;-74
2021/03/20 05:11:44;;;;;;;5.28;3.50;;;2.00;76.00;;;;;;5074050;28;20484;-74
2021/03/20 05:14:30;;;;;;;5.05;3.63;;;2.00;76.00;;;;;;5075364;28;20039;-74
2021/03/20 05:16:58;;;;;;;6.20;3.90;;;2.10;76.10;;;;;;5075466;28;20033;-73
2021/03/20 05:19:26;;;;;;;8.15;4.28;;;2.10;76.60;;;;;;5074110;28;20036;-73
2021/03/20 05:21:54;;;;;;;5.90;3.80;;;2.10;75.90;;;;;;5075540;28;20047;-74
2021/03/20 05:24:24;;;;;;;5.85;3.85;;;2.10;75.90;;;;;;5073914;28;20048;-73
2021/03/20 05:26:50;;;;;;;6.90;4.00;;;2.10;75.90;;;;;;5075121;28;20036;-74
2021/03/20 05:29:16;;;;;;;7.00;4.15;;;2.10;76.00;;;;;;5074131;28;20027;-74
2021/03/20 05:31:42;;;;;;;6.50;4.13;;;2.10;75.90;;;;;;5075192;28;20029;-74
2021/03/20 05:34:28;;;;;;;8.15;4.30;;;2.10;75.80;;;;;;5073782;28;20484;-74
2021/03/20 05:36:54;;;;;;;6.05;3.85;;;2.10;75.80;;;;;;5073634;28;20072;-73
2021/03/20 05:39:21;;;;;;;5.90;3.70;;;2.20;75.80;;;;;;5073699;28;20033;-73
2021/03/20 05:41:50;;;;;;;4.60;3.60;;;2.20;75.70;;;;;;5074944;28;20051;-73
2021/03/20 05:44:43;;;;;;;4.95;3.55;;;2.20;75.70;;;;;;5074816;28;20476;-74
2021/03/20 05:47:41;;;;;;;5.15;3.95;;;2.20;75.60;;;;;;5074919;28;20028;-74
2021/03/20 05:50:29;;;;;;;5.75;3.90;;;2.20;75.50;;;;;;5073572;28;20044;-73
2021/03/20 05:53:15;;;;;;;8.27;4.00;;;2.10;75.50;;;;;;5074549;28;20040;-74
2021/03/20 05:55:45;;;;;;;6.32;4.03;;;2.10;75.50;;;;;;5073347;28;20067;-74
2021/03/20 05:58:24;;;;;;;6.57;3.90;;;2.10;75.40;;;;;;5073958;28;20059;-74
2021/03/20 06:01:24;;;;;;;6.90;3.90;;;2.20;75.50;;;;;;5074754;28;20036;-73
2021/03/20 06:03:58;;;;;;;8.30;4.68;;;2.20;75.50;;;;;;5055487;28;20123;-73
2021/03/20 06:07:05;;;;;;;5.80;4.07;;;2.20;75.40;;;;;;5072366;28;20036;-74
2021/03/20 06:10:01;;;;;;;5.65;4.38;;;2.10;75.50;;;;;;5072176;28;20032;-75
2021/03/20 06:12:48;;;;;;;7.53;4.22;;;2.10;75.50;;;;;;5065326;28;20458;-73
2021/03/20 06:15:55;;;;;;;7.63;4.25;;;2.10;75.60;;;;;;5055277;28;20032;-73
2021/03/20 06:18:50;;;;;;;6.05;4.32;;;2.10;75.70;;;;;;5055232;28;20166;-73
2021/03/20 06:21:33;;;;;;;6.90;4.50;;;2.10;75.70;;;;;;5071937;28;20456;-73
2021/03/20 06:24:07;;;;;;;5.18;4.10;;;2.20;75.70;;;;;;5072406;28;20068;-74
2021/03/20 06:26:37;;;;;;;5.53;4.10;;;2.20;75.60;;;;;;5054963;28;20046;-73
2021/03/20 06:29:21;;;;;;;5.50;3.45;;;2.30;75.60;;;;;;5071764;28;20481;-74
2021/03/20 06:31:58;;;;;;;5.05;3.65;;;2.30;75.50;;;;;;5055049;28;20106;-72
2021/03/20 06:34:41;;;;;;;5.10;3.90;;;2.40;75.30;;;;;;5054994;28;20043;-73
2021/03/20 06:37:18;;;;;;;25.05;12.88;;;2.50;75.20;;;;;;5055104;28;20120;-73
2021/03/20 06:40:18;;;;;;;9.70;6.25;;;2.50;75.00;;;;;;5064995;28;20098;-73
2021/03/20 06:42:45;;;;;;;6.47;4.60;;;2.60;75.40;;;;;;5073834;28;20028;-74
2021/03/20 06:45:25;;;;;;;4.35;3.50;;;2.60;74.50;;;;;;5072409;28;20039;-73
2021/03/20 06:47:56;;;;;;;8.18;3.22;;;2.60;74.20;;;;;;5073665;28;20032;-73
2021/03/20 06:50:32;;;;;;;4.47;3.20;;;2.70;73.90;;;;;;5073596;28;20028;-73
2021/03/20 06:53:04;;;;;;;6.00;3.00;;;2.70;73.60;;;;;;5073399;28;20547;-73
2021/03/20 06:55:33;;;;;;;3.75;2.80;;;2.80;73.40;;;;;;5072101;28;20054;-73
2021/03/20 06:58:04;;;;;;;4.63;2.38;;;2.90;73.10;;;;;;5072067;28;20021;-73
2021/03/20 07:00:34;;;;;;;4.25;2.83;;;2.90;72.80;;;;;;5071917;28;20036;-73
2021/03/20 07:03:24;;;;;;;4.25;2.60;;;3.00;72.60;;;;;;5071974;28;20036;-73
2021/03/20 07:06:20;;;;;;;4.20;2.53;;;3.10;72.30;;;;;;5073609;28;20032;-73
2021/03/20 07:08:52;;;;;;;3.60;2.67;;;3.10;71.90;;;;;;5071916;28;20488;-73
2021/03/20 07:11:40;;;;;;;4.40;2.20;;;3.20;71.80;;;;;;5071657;28;20107;-73
2021/03/20 07:14:10;;;;;;;4.55;2.50;;;3.30;71.40;;;;;;5071819;28;20123;-73
2021/03/20 07:16:54;;;;;;;4.28;2.50;;;3.30;71.10;;;;;;5073131;28;20032;-74
2021/03/20 07:19:20;;;;;;;5.28;2.03;;;3.40;70.80;;;;;;5071567;28;20056;-74
2021/03/20 07:22:06;;;;;;;3.20;2.17;;;3.40;70.60;;;;;;5073075;28;20449;-74
2021/03/20 07:24:39;;;;;;;3.55;2.05;;;3.40;70.20;;;;;;5072938;28;20031;-74
2021/03/20 07:27:28;;;;;;;4.97;2.17;;;3.50;70.00;;;;;;5071673;28;20123;-74
2021/03/20 07:29:57;;;;;;;2.75;2.03;;;3.50;69.70;;;;;;5073008;28;20392;-74
2021/03/20 07:32:23;;;;;;;3.22;2.08;;;3.60;69.50;;;;;;5071597;28;20480;-74
2021/03/20 07:34:49;;;;;;;3.97;2.20;;;3.70;69.30;;;;;;5073099;28;20040;-74
2021/03/20 07:37:18;;;;;;;4.13;2.00;;;3.70;69.10;;;;;;5073015;28;20036;-74
2021/03/20 07:39:51;;;;;;;4.38;2.15;;;3.80;68.90;;;;;;5071605;28;20029;-74
2021/03/20 07:42:38;;;;;;;2.45;1.90;;;3.80;68.80;;;;;;5073022;28;20032;-74
2021/03/20 07:45:06;;;;;;;5.47;2.20;;;3.90;68.60;;;;;;5072908;28;20113;-74
2021/03/20 07:47:39;;;;;;;2.30;1.95;;;4.00;68.50;;;;;;5071467;28;20040;-74
2021/03/20 07:50:26;;;;;;;3.00;2.30;;;4.00;68.30;;;;;;5071631;28;20058;-73
2021/03/20 07:53:01;;;;;;;2.90;2.45;;;4.10;68.10;;;;;;5071364;28;20117;-75
2021/03/20 07:55:29;;;;;;;4.82;2.42;;;4.20;68.20;;;;;;5073354;28;20052;-73
2021/03/20 07:58:01;;;;;;;5.15;2.58;;;4.20;67.80;;;;;;5071538;28;20033;-74
2021/03/20 08:00:41;;;;;;;5.38;2.67;;;4.30;67.70;;;;;;5073161;28;20040;-74
2021/03/20 08:03:19;;;;;;;3.15;2.40;;;4.40;67.60;;;;;;5073013;28;20052;-74
2021/03/20 08:05:45;;;;;;;3.70;2.25;;;4.40;67.40;;;;;;5072833;28;20056;-74
2021/03/20 08:08:23;;;;;;;2.95;2.28;;;4.50;67.20;;;;;;5071609;28;20044;-74
2021/03/20 08:10:55;;;;;;;5.65;2.50;;;4.60;67.00;;;;;;5071502;28;20384;-74
2021/03/20 08:13:32;;;;;;;7.25;2.80;;;4.60;66.80;;;;;;5072104;28;20499;-74
2021/03/20 08:15:58;;;;;;;3.63;2.67;;;4.70;66.60;;;;;;5072780;28;20024;-74
2021/03/20 08:18:30;;;;;;;7.30;2.70;;;4.80;66.30;;;;;;5073360;28;20051;-75
2021/03/20 08:21:16;;;;;;;4.95;2.95;;;4.80;66.20;;;;;;5071383;28;20027;-74
2021/03/20 08:24:23;;;;;;;4.28;2.30;;;4.90;66.10;;;;;;5076525;28;20086;-74
2021/03/20 08:26:51;;;;;;;3.45;2.40;;;5.00;66.20;;;;;;5076389;28;20492;-75
2021/03/20 08:29:48;;;;;;;4.07;2.80;;;5.20;66.10;;;;;;5075182;28;20040;-74
2021/03/20 08:32:59;;;;;;;4.05;2.88;;;5.20;65.40;;;;;;5076467;28;20086;-74
2021/03/20 08:35:33;;;;;;;4.18;2.50;;;5.30;65.20;;;;;;5076327;28;20024;-74
2021/03/20 08:38:17;;;;;;;4.18;2.95;;;5.30;65.10;;;;;;5075542;28;20131;-74
2021/03/20 08:40:53;;;;;;;4.97;3.00;;;5.40;65.00;;;;;;5074820;28;20119;-75
2021/03/20 08:43:57;;;;;;;3.92;2.70;;;5.50;64.60;;;;;;5074915;28;20051;-75
2021/03/20 08:46:52;;;;;;;4.40;3.15;;;5.50;64.50;;;;;;5075903;28;20033;-74
2021/03/20 08:49:45;;;;;;;3.90;2.95;;;5.50;64.20;;;;;;5075907;28;20107;-74
2021/03/20 08:52:42;;;;;;;5.80;4.20;;;5.60;64.20;;;;;;5075921;28;20028;-75
2021/03/20 08:55:45;;;;;;;14.00;7.75;;;5.60;64.00;;;;;;5075571;28;20029;-74
2021/03/20 08:58:43;;;;;;;7.50;4.55;;;5.70;63.70;;;;;;5075926;28;20024;-74
2021/03/20 09:01:31;;;;;;;5.13;3.58;;;5.80;63.50;;;;;;5075594;28;20059;-73
2021/03/20 09:04:01;;;;;;;6.03;3.22;;;5.80;63.30;;;;;;5075174;28;20052;-75
2021/03/20 09:06:34;;;;;;;8.52;3.67;;;5.90;63.20;;;;;;5075778;28;20422;-73
2021/03/20 09:09:11;;;;;;;4.90;3.10;;;5.90;63.00;;;;;;5075801;28;20040;-74
2021/03/20 09:11:43;;;;;;;4.75;2.60;;;5.90;62.80;;;;;;5075497;28;20036;-74
2021/03/20 09:14:21;;;;;;;3.15;2.47;;;6.00;63.10;;;;;;5075414;28;20091;-75
2021/03/20 09:17:05;;;;;;;4.07;2.47;;;5.90;62.80;;;;;;5074169;28;20033;-74
2021/03/20 09:19:38;;;;;;;3.22;2.53;;;6.00;62.30;;;;;;5075526;28;20464;-74
2021/03/20 09:22:11;;;;;;;3.92;2.50;;;6.00;61.60;;;;;;5075502;28;20105;-74
2021/03/20 09:24:47;;;;;;;5.17;2.23;;;5.90;61.80;;;;;;5074076;28;20111;-74
2021/03/20 09:27:13;;;;;;;4.63;2.95;;;6.00;61.60;;;;;;5074133;28;20115;-74
2021/03/20 09:30:19;;;;;;;3.95;2.92;;;6.00;61.40;;;;;;5073941;28;20108;-76
2021/03/20 09:32:49;;;;;;;4.32;2.42;;;6.10;61.30;;;;;;5073356;28;20044;-74
2021/03/20 09:35:25;;;;;;;4.15;2.25;;;6.10;61.30;;;;;;5075378;28;20079;-74
2021/03/20 09:37:55;;;;;;;3.72;2.45;;;6.20;61.20;;;;;;5074016;28;20028;-75
2021/03/20 09:41:00;;;;;;;3.15;2.53;;;6.20;61.20;;;;;;5073576;28;20032;-74
2021/03/20 09:44:06;;;;;;;3.40;2.30;;;6.30;61.00;;;;;;5055986;28;20033;-75
2021/03/20 09:46:35;;;;;;;3.70;2.30;;;6.40;60.40;;;;;;5072823;28;20033;-74
2021/03/20 09:49:23;;;;;;;2.58;2.28;;;6.40;60.20;;;;;;5056517;28;20535;-74
2021/03/20 09:51:53;;;;;;;6.43;2.70;;;6.50;60.50;;;;;;5058830;28;20040;-75
2021/03/20 09:54:22;;;;;;;3.10;2.30;;;6.60;60.50;;;;;;5055763;28;20045;-74
2021/03/20 09:56:49;;;;;;;4.85;2.13;;;6.60;60.30;;;;;;5055798;28;20056;-75
2021/03/20 09:59:30;;;;;;;2.60;2.40;;;6.70;59.90;;;;;;5072442;28;20033;-75
2021/03/20 10:02:25;;;;;;;3.28;2.50;;;6.80;59.70;;;;;;5072556;28;20102;-74
2021/03/20 10:04:58;;;;;;;3.25;2.30;;;6.80;59.80;;;;;;5055355;28;20492;-74
2021/03/20 10:07:24;;;;;;;4.03;2.50;;;6.90;59.80;;;;;;5055556;28;20032;-74
2021/03/20 10:09:53;;;;;;;3.50;2.65;;;7.00;59.40;;;;;;5055399;28;20063;-74
2021/03/20 10:12:26;;;;;;;4.20;2.72;;;7.00;59.30;;;;;;5055219;28;20127;-74
2021/03/20 10:15:16;;;;;;;3.55;2.35;;;7.00;59.10;;;;;;5068745;28;20476;-74
2021/03/20 10:18:06;;;;;;;3.60;2.63;;;7.00;58.70;;;;;;5074810;28;20020;-74
2021/03/20 10:20:45;;;;;;;4.28;2.70;;;7.10;58.90;;;;;;5073926;28;20358;-74
2021/03/20 10:23:42;;;;;;;2.75;2.30;;;7.10;58.90;;;;;;5072639;28;20058;-74
2021/03/20 10:26:34;;;;;;;3.53;2.50;;;7.20;58.90;;;;;;5074008;28;20045;-74
2021/03/20 10:29:16;;;;;;;5.55;3.47;;;7.30;58.70;;;;;;5072649;28;20029;-74
2021/03/20 10:31:50;;;;;;;2.88;2.20;;;7.30;58.40;;;;;;5073944;28;20031;-74
2021/03/20 10:34:19;;;;;;;2.85;2.30;;;7.30;58.20;;;;;;5074003;28;20036;-74
2021/03/20 10:36:48;;;;;;;4.28;2.60;;;7.30;58.20;;;;;;5072457;28;20377;-74
2021/03/20 10:39:23;;;;;;;3.70;2.47;;;7.40;58.30;;;;;;5073689;28;20024;-74
2021/03/20 10:41:50;;;;;;;3.85;2.60;;;7.40;58.10;;;;;;5072301;28;20025;-74
2021/03/20 10:44:21;;;;;;;3.20;2.30;;;7.40;58.10;;;;;;5073101;28;20358;-75
2021/03/20 10:46:47;;;;;;;3.17;2.22;;;7.50;57.80;;;;;;5072209;28;20365;-74
2021/03/20 10:49:22;;;;;;;2.72;2.38;;;7.50;57.80;;;;;;5072171;28;20021;-74
2021/03/20 10:51:53;;;;;;;3.13;2.50;;;7.50;57.70;;;;;;5073429;28;20027;-74
2021/03/20 10:54:34;;;;;;;3.50;2.38;;;7.60;57.80;;;;;;5074312;28;20028;-73
2021/03/20 10:57:11;;;;;;;5.30;2.30;;;7.60;57.60;;;;;;5073392;28;20021;-74
2021/03/20 11:03:14;;;;;;;4.68;2.65;;;7.80;57.50;;;;;;5074022;28;20116;-74
2021/03/20 11:05:41;;;;;;;2.33;2.13;;;7.80;57.00;;;;;;5072181;28;20201;-73
2021/03/20 11:08:19;;;;;;;3.10;2.30;;;7.80;57.10;;;;;;5071984;28;20052;-74
2021/03/20 11:10:48;;;;;;;4.70;3.22;;;7.80;57.20;;;;;;5073264;28;20096;-73
2021/03/20 11:13:17;;;;;;;5.65;3.22;;;7.90;57.40;;;;;;5072052;28;20032;-73
2021/03/20 11:15:46;;;;;;;4.88;2.90;;;7.90;57.20;;;;;;5072981;28;20028;-74
2021/03/20 11:21:37;;;;;;;3.55;3.03;;;8.00;57.10;;;;;;5073400;28;20065;-74
2021/03/20 11:24:07;;;;;;;4.40;2.40;;;8.00;56.90;;;;;;5071915;28;20032;-74
2021/03/20 11:26:47;;;;;;;7.43;3.83;;;8.00;57.00;;;;;;5073015;28;20399;-74
2021/03/20 11:29:18;;;;;;;3.60;2.75;;;8.00;56.70;;;;;;5071930;28;20107;-74
2021/03/20 11:32:03;;;;;;;4.82;3.42;;;8.10;57.00;;;;;;5072982;28;20423;-74
2021/03/20 11:34:37;;;;;;;3.88;2.65;;;8.10;57.00;;;;;;5073334;28;20033;-74
2021/03/20 11:37:05;;;;;;;3.17;2.42;;;8.10;57.00;;;;;;5072129;28;20024;-74
2021/03/20 11:39:31;;;;;;;3.95;3.03;;;8.30;57.20;;;;;;5072700;28;20099;-74
2021/03/20 11:42:11;;;;;;;3.95;2.67;;;8.30;57.00;;;;;;5071710;28;20162;-74
2021/03/20 11:44:46;;;;;;;3.67;3.25;;;8.30;56.70;;;;;;5072997;28;20554;-74
2021/03/20 11:47:30;;;;;;;3.90;3.00;;;8.40;56.70;;;;;;5071525;28;20025;-74
2021/03/20 11:49:58;;;;;;;4.13;2.30;;;8.40;56.40;;;;;;5072861;28;20537;-73
2021/03/20 11:52:34;;;;;;;3.00;2.67;;;8.50;56.50;;;;;;5072727;28;20028;-74
2021/03/20 11:55:16;;;;;;;9.60;6.00;;;8.60;56.30;;;;;;5068634;28;20143;-74
2021/03/20 11:57:43;;;;;;;6.53;4.22;;;8.60;56.40;;;;;;5075468;28;20047;-74
2021/03/20 12:00:28;;;;;;;5.70;3.80;;;8.70;56.10;;;;;;5075730;28;20033;-74
2021/03/20 12:02:53;;;;;;;3.90;3.08;;;8.80;56.30;;;;;;5076746;28;20024;-74
2021/03/20 12:05:31;;;;;;;4.35;2.60;;;8.80;56.20;;;;;;5075343;28;20027;-74
2021/03/20 12:08:26;;;;;;;2.90;2.63;;;8.90;56.00;;;;;;5076713;28;20477;-74
2021/03/20 12:10:57;;;;;;;3.28;2.67;;;9.00;55.70;;;;;;5076565;28;20472;-74
2021/03/20 12:13:37;;;;;;;3.80;2.95;;;9.10;55.10;;;;;;5075019;28;20028;-74
2021/03/20 12:16:04;;;;;;;2.97;2.40;;;9.10;55.40;;;;;;5076447;28;20364;-74
2021/03/20 12:18:32;;;;;;;3.65;2.42;;;9.10;55.00;;;;;;5075421;28;20306;-74
2021/03/20 12:21:07;;;;;;;4.47;2.70;;;9.20;55.20;;;;;;5076025;28;20356;-75
2021/03/20 12:23:35;;;;;;;3.35;2.58;;;9.20;55.10;;;;;;5074970;28;20021;-74
2021/03/20 12:26:17;;;;;;;3.30;2.60;;;9.20;54.90;;;;;;5076491;28;20060;-73
2021/03/20 12:28:44;;;;;;;4.68;2.75;;;9.30;54.80;;;;;;5074890;28;20033;-74
2021/03/20 12:31:13;;;;;;;5.47;3.00;;;9.30;54.20;;;;;;5074964;28;20035;-74
2021/03/20 12:33:51;;;;;;;4.35;2.60;;;9.30;53.80;;;;;;5075944;28;20111;-74
2021/03/20 12:36:33;;;;;;;4.13;2.70;;;9.30;54.40;;;;;;5074509;28;20028;-74
2021/03/20 12:38:59;;;;;;;3.38;2.92;;;9.40;54.70;;;;;;5076021;28;20095;-74
2021/03/20 12:41:28;;;;;;;2.90;2.47;;;9.50;54.50;;;;;;5075952;28;20495;-74
2021/03/20 12:44:03;;;;;;;3.40;2.90;;;9.50;54.30;;;;;;5074470;28;20117;-74
2021/03/20 12:46:29;;;;;;;3.60;2.88;;;9.60;54.00;;;;;;5074603;28;20033;-74
2021/03/20 12:48:54;;;;;;;3.40;2.72;;;9.70;54.20;;;;;;5075162;28;20064;-74
2021/03/20 12:51:23;;;;;;;3.53;2.78;;;9.80;54.20;;;;;;5074529;28;20115;-74
2021/03/20 12:53:48;;;;;;;2.83;2.50;;;9.90;53.90;;;;;;5075603;28;20151;-74
2021/03/20 12:56:15;;;;;;;3.55;2.53;;;10.00;53.80;;;;;;5074510;28;20123;-74
2021/03/20 12:58:40;;;;;;;5.20;3.25;;;10.10;53.80;;;;;;5076114;28;20044;-74
2021/03/20 13:01:06;;;;;;;3.17;2.88;;;10.30;53.80;;;;;;5075910;28;20033;-74
2021/03/20 13:03:33;;;;;;;3.90;2.85;;;10.40;53.50;;;;;;5075605;28;20028;-74
2021/03/20 13:05:59;;;;;;;6.85;3.33;;;10.50;53.00;;;;;;5075617;28;20024;-74
2021/03/20 13:08:25;;;;;;;3.58;3.15;;;10.50;52.20;;;;;;5075003;28;20369;-74
2021/03/20 13:10:51;;;;;;;7.30;3.20;;;10.50;52.00;;;;;;5074068;28;20028;-74
2021/03/20 13:13:17;;;;;;;4.18;2.97;;;10.40;51.70;;;;;;5074117;28;20107;-73
2021/03/20 13:15:43;;;;;;;4.57;2.83;;;10.40;52.20;;;;;;5075381;28;20078;-74
2021/03/20 13:18:10;;;;;;;3.53;2.58;;;10.40;51.60;;;;;;5073933;28;20013;-74
2021/03/20 13:20:35;;;;;;;4.10;2.72;;;10.50;52.20;;;;;;5075492;28;20047;-74
2021/03/20 13:23:01;;;;;;;4.97;3.03;;;10.60;52.20;;;;;;5074088;28;20107;-75
2021/03/20 13:25:48;;;;;;;3.85;2.85;;;10.70;51.20;;;;;;5075504;28;20075;-74
2021/03/20 13:28:14;;;;;;;4.00;2.42;;;10.80;50.00;;;;;;5073771;28;20074;-74
2021/03/20 13:30:44;;;;;;;2.65;2.38;;;10.80;49.90;;;;;;5073915;28;20120;-74
2021/03/20 13:33:11;;;;;;;3.63;2.30;;;10.80;49.90;;;;;;5073959;28;20030;-74
2021/03/20 13:35:39;;;;;;;2.78;2.38;;;10.90;49.90;;;;;;5073915;28;20115;-74
2021/03/20 13:38:06;;;;;;;4.63;2.95;;;11.10;50.20;;;;;;5073775;28;20108;-74
2021/03/20 13:40:33;;;;;;;3.92;2.80;;;11.30;50.20;;;;;;5073944;28;20017;-74
2021/03/20 13:43:00;;;;;;;3.83;2.70;;;11.40;49.90;;;;;;5075125;28;20066;-74
2021/03/20 13:45:27;;;;;;;3.60;2.78;;;11.50;49.10;;;;;;5073737;28;20468;-74